sensor_id;sensor_type;location;lat;lon;timestamp;temperature;humidity
59855;DHT22;45732;52.850;6.896;2022-07-06T00:01:40;14.30;99.90
59855;DHT22;45732;52.850;6.896;2022-07-06T00:04:06;14.30;99.90
59855;DHT22;45732;52.850;6.896;2022-07-06T00:06:32;14.40;99.90
59855;DHT22;45732;52.850;6.896;2022-07-06T00:08:58;14.30;99.90
59855;DHT22;45732;52.850;6.896;2022-07-06T00:11:24;14.40;99.90
59855;DHT22;45732;52.850;6.896;2022-07-06T00:13:50;14.40;99.90
59855;DHT22;45732;52.850;6.896;2022-07-06T00:16:16;14.40;99.90
59855;DHT22;45732;52.850;6.896;2022-07-06T00:18:42;14.40;99.90
59855;DHT22;45732;52.850;6.896;2022-07-06T00:21:07;14.30;99.90
59855;DHT22;45732;52.850;6.896;2022-07-06T00:23:33;14.30;99.90
59855;DHT22;45732;52.850;6.896;2022-07-06T00:25:59;14.30;99.90
59855;DHT22;45732;52.850;6.896;2022-07-06T00:28:25;14.30;99.90
59855;DHT22;45732;52.850;6.896;2022-07-06T00:30:50;14.30;99.90
59855;DHT22;45732;52.850;6.896;2022-07-06T00:33:17;14.40;99.90
59855;DHT22;45732;52.850;6.896;2022-07-06T00:35:42;14.40;99.90
59855;DHT22;45732;52.850;6.896;2022-07-06T00:38:08;14.40;99.90
59855;DHT22;45732;52.850;6.896;2022-07-06T00:40:34;14.50;99.90
59855;DHT22;45732;52.850;6.896;2022-07-06T00:42:59;14.50;99.90
59855;DHT22;45732;52.850;6.896;2022-07-06T00:45:25;14.50;99.90
59855;DHT22;45732;52.850;6.896;2022-07-06T00:47:51;14.50;99.90
59855;DHT22;45732;52.850;6.896;2022-07-06T00:50:17;14.60;99.90
59855;DHT22;45732;52.850;6.896;2022-07-06T00:55:14;14.60;99.90
59855;DHT22;45732;52.850;6.896;2022-07-06T00:57:41;14.50;99.90
59855;DHT22;45732;52.850;6.896;2022-07-06T01:00:09;14.50;99.90
59855;DHT22;45732;52.850;6.896;2022-07-06T01:02:35;14.40;99.90
59855;DHT22;45732;52.850;6.896;2022-07-06T01:05:04;14.40;99.90
59855;DHT22;45732;52.850;6.896;2022-07-06T01:07:30;14.40;99.90
59855;DHT22;45732;52.850;6.896;2022-07-06T01:09:56;14.50;99.90
59855;DHT22;45732;52.850;6.896;2022-07-06T01:12:22;14.40;99.90
59855;DHT22;45732;52.850;6.896;2022-07-06T01:14:48;14.40;99.90
59855;DHT22;45732;52.850;6.896;2022-07-06T01:17:15;14.30;99.90
59855;DHT22;45732;52.850;6.896;2022-07-06T01:19:42;14.30;99.90
59855;DHT22;45732;52.850;6.896;2022-07-06T01:22:11;14.30;99.90
59855;DHT22;45732;52.850;6.896;2022-07-06T01:24:37;14.30;99.90
59855;DHT22;45732;52.850;6.896;2022-07-06T01:27:07;14.30;99.90
59855;DHT22;45732;52.850;6.896;2022-07-06T01:29:33;14.30;99.90
59855;DHT22;45732;52.850;6.896;2022-07-06T01:32:00;14.40;99.90
59855;DHT22;45732;52.850;6.896;2022-07-06T01:34:25;14.40;99.90
59855;DHT22;45732;52.850;6.896;2022-07-06T01:36:51;14.30;99.90
59855;DHT22;45732;52.850;6.896;2022-07-06T01:39:17;14.30;99.90
59855;DHT22;45732;52.850;6.896;2022-07-06T01:41:43;14.20;99.90
59855;DHT22;45732;52.850;6.896;2022-07-06T01:44:09;14.30;99.90
59855;DHT22;45732;52.850;6.896;2022-07-06T01:46:35;14.30;99.90
59855;DHT22;45732;52.850;6.896;2022-07-06T01:49:01;14.20;99.90
59855;DHT22;45732;52.850;6.896;2022-07-06T01:51:26;14.30;99.90
59855;DHT22;45732;52.850;6.896;2022-07-06T01:53:52;14.20;99.90
59855;DHT22;45732;52.850;6.896;2022-07-06T01:56:19;14.30;99.90
59855;DHT22;45732;52.850;6.896;2022-07-06T01:58:46;14.30;99.90
59855;DHT22;45732;52.850;6.896;2022-07-06T02:01:20;14.30;99.90
59855;DHT22;45732;52.850;6.896;2022-07-06T02:03:46;14.30;99.90
59855;DHT22;45732;52.850;6.896;2022-07-06T02:06:12;14.30;99.90
59855;DHT22;45732;52.850;6.896;2022-07-06T02:08:39;14.30;99.90
59855;DHT22;45732;52.850;6.896;2022-07-06T02:11:06;14.30;99.90
59855;DHT22;45732;52.850;6.896;2022-07-06T02:13:33;14.20;99.90
59855;DHT22;45732;52.850;6.896;2022-07-06T02:15:59;14.20;99.90
59855;DHT22;45732;52.850;6.896;2022-07-06T02:18:25;14.20;99.90
59855;DHT22;45732;52.850;6.896;2022-07-06T02:20:50;14.10;99.90
59855;DHT22;45732;52.850;6.896;2022-07-06T02:23:16;14.10;99.90
59855;DHT22;45732;52.850;6.896;2022-07-06T02:25:42;14.10;99.90
59855;DHT22;45732;52.850;6.896;2022-07-06T02:28:07;14.10;99.90
59855;DHT22;45732;52.850;6.896;2022-07-06T02:30:33;14.10;99.90
59855;DHT22;45732;52.850;6.896;2022-07-06T02:32:59;14.10;99.90
59855;DHT22;45732;52.850;6.896;2022-07-06T02:35:25;14.10;99.90
59855;DHT22;45732;52.850;6.896;2022-07-06T02:37:50;14.10;99.90
59855;DHT22;45732;52.850;6.896;2022-07-06T02:40:16;14.10;99.90
59855;DHT22;45732;52.850;6.896;2022-07-06T02:42:42;14.10;99.90
59855;DHT22;45732;52.850;6.896;2022-07-06T02:45:08;14.00;99.90
59855;DHT22;45732;52.850;6.896;2022-07-06T02:47:34;14.00;99.90
59855;DHT22;45732;52.850;6.896;2022-07-06T02:50:00;14.00;99.90
59855;DHT22;45732;52.850;6.896;2022-07-06T02:52:26;14.00;99.90
59855;DHT22;45732;52.850;6.896;2022-07-06T02:54:51;14.00;99.90
59855;DHT22;45732;52.850;6.896;2022-07-06T02:57:19;14.00;99.90
59855;DHT22;45732;52.850;6.896;2022-07-06T02:59:44;14.00;99.90
59855;DHT22;45732;52.850;6.896;2022-07-06T03:02:11;14.00;99.90
59855;DHT22;45732;52.850;6.896;2022-07-06T03:04:37;14.00;99.90
59855;DHT22;45732;52.850;6.896;2022-07-06T03:07:03;14.10;99.90
59855;DHT22;45732;52.850;6.896;2022-07-06T03:09:29;14.10;99.90
59855;DHT22;45732;52.850;6.896;2022-07-06T03:11:54;14.10;99.90
59855;DHT22;45732;52.850;6.896;2022-07-06T03:14:20;14.10;99.90
59855;DHT22;45732;52.850;6.896;2022-07-06T03:16:46;14.10;99.90
59855;DHT22;45732;52.850;6.896;2022-07-06T03:19:12;14.10;99.90
59855;DHT22;45732;52.850;6.896;2022-07-06T03:21:37;14.10;99.90
59855;DHT22;45732;52.850;6.896;2022-07-06T03:24:04;14.00;99.90
59855;DHT22;45732;52.850;6.896;2022-07-06T03:26:29;14.10;99.90
59855;DHT22;45732;52.850;6.896;2022-07-06T03:28:55;14.10;99.90
59855;DHT22;45732;52.850;6.896;2022-07-06T03:31:21;14.10;99.90
59855;DHT22;45732;52.850;6.896;2022-07-06T03:33:47;14.10;99.90
59855;DHT22;45732;52.850;6.896;2022-07-06T03:36:12;14.10;99.90
59855;DHT22;45732;52.850;6.896;2022-07-06T03:38:38;14.10;99.90
59855;DHT22;45732;52.850;6.896;2022-07-06T03:41:04;14.10;99.90
59855;DHT22;45732;52.850;6.896;2022-07-06T03:43:29;14.10;99.90
59855;DHT22;45732;52.850;6.896;2022-07-06T03:45:55;14.10;99.90
59855;DHT22;45732;52.850;6.896;2022-07-06T03:48:21;14.10;99.90
59855;DHT22;45732;52.850;6.896;2022-07-06T03:50:47;14.10;99.90
59855;DHT22;45732;52.850;6.896;2022-07-06T03:53:12;14.10;99.90
59855;DHT22;45732;52.850;6.896;2022-07-06T03:55:38;14.10;99.90
59855;DHT22;45732;52.850;6.896;2022-07-06T03:58:04;14.10;99.90
59855;DHT22;45732;52.850;6.896;2022-07-06T04:00:29;14.20;99.90
59855;DHT22;45732;52.850;6.896;2022-07-06T04:02:55;14.20;99.90
59855;DHT22;45732;52.850;6.896;2022-07-06T04:05:21;14.20;99.90
59855;DHT22;45732;52.850;6.896;2022-07-06T04:07:48;14.20;99.90
59855;DHT22;45732;52.850;6.896;2022-07-06T04:10:15;14.30;99.90
59855;DHT22;45732;52.850;6.896;2022-07-06T04:12:44;14.30;99.90
59855;DHT22;45732;52.850;6.896;2022-07-06T04:15:11;14.40;99.90
59855;DHT22;45732;52.850;6.896;2022-07-06T04:17:37;14.40;99.90
59855;DHT22;45732;52.850;6.896;2022-07-06T04:20:18;14.40;99.90
59855;DHT22;45732;52.850;6.896;2022-07-06T04:22:44;14.40;99.90
59855;DHT22;45732;52.850;6.896;2022-07-06T04:25:10;14.40;99.90
59855;DHT22;45732;52.850;6.896;2022-07-06T04:27:35;14.50;99.90
59855;DHT22;45732;52.850;6.896;2022-07-06T04:30:03;14.50;99.90
59855;DHT22;45732;52.850;6.896;2022-07-06T04:32:29;14.50;99.90
59855;DHT22;45732;52.850;6.896;2022-07-06T04:34:55;14.50;99.90
59855;DHT22;45732;52.850;6.896;2022-07-06T04:37:20;14.50;99.90
59855;DHT22;45732;52.850;6.896;2022-07-06T04:39:46;14.60;99.90
59855;DHT22;45732;52.850;6.896;2022-07-06T04:42:12;14.60;99.90
59855;DHT22;45732;52.850;6.896;2022-07-06T04:44:37;14.60;99.90
59855;DHT22;45732;52.850;6.896;2022-07-06T04:47:03;14.60;99.90
59855;DHT22;45732;52.850;6.896;2022-07-06T04:49:29;14.60;99.90
59855;DHT22;45732;52.850;6.896;2022-07-06T04:51:54;14.70;99.90
59855;DHT22;45732;52.850;6.896;2022-07-06T04:54:20;14.70;99.90
59855;DHT22;45732;52.850;6.896;2022-07-06T04:56:46;14.70;99.90
59855;DHT22;45732;52.850;6.896;2022-07-06T04:59:12;14.70;99.90
59855;DHT22;45732;52.850;6.896;2022-07-06T05:01:38;14.70;99.90
59855;DHT22;45732;52.850;6.896;2022-07-06T05:04:04;14.70;99.90
59855;DHT22;45732;52.850;6.896;2022-07-06T05:06:30;14.60;99.90
59855;DHT22;45732;52.850;6.896;2022-07-06T05:08:55;14.70;99.90
59855;DHT22;45732;52.850;6.896;2022-07-06T05:11:21;14.70;99.90
59855;DHT22;45732;52.850;6.896;2022-07-06T05:13:47;14.70;99.90
59855;DHT22;45732;52.850;6.896;2022-07-06T05:16:12;14.70;99.90
59855;DHT22;45732;52.850;6.896;2022-07-06T05:18:38;14.80;99.90
59855;DHT22;45732;52.850;6.896;2022-07-06T05:21:04;14.80;99.90
59855;DHT22;45732;52.850;6.896;2022-07-06T05:23:30;14.70;99.90
59855;DHT22;45732;52.850;6.896;2022-07-06T05:25:55;14.80;99.90
59855;DHT22;45732;52.850;6.896;2022-07-06T05:28:21;14.90;99.90
59855;DHT22;45732;52.850;6.896;2022-07-06T05:30:46;14.90;99.90
59855;DHT22;45732;52.850;6.896;2022-07-06T05:33:12;15.00;99.90
59855;DHT22;45732;52.850;6.896;2022-07-06T05:35:38;15.00;99.90
59855;DHT22;45732;52.850;6.896;2022-07-06T05:38:03;15.10;99.90
59855;DHT22;45732;52.850;6.896;2022-07-06T05:40:30;15.10;99.90
59855;DHT22;45732;52.850;6.896;2022-07-06T05:42:56;15.10;99.90
59855;DHT22;45732;52.850;6.896;2022-07-06T05:45:21;15.20;99.90
59855;DHT22;45732;52.850;6.896;2022-07-06T05:47:48;15.20;99.90
59855;DHT22;45732;52.850;6.896;2022-07-06T05:50:32;15.20;99.90
59855;DHT22;45732;52.850;6.896;2022-07-06T05:53:01;15.20;99.90
59855;DHT22;45732;52.850;6.896;2022-07-06T05:55:27;15.30;99.90
59855;DHT22;45732;52.850;6.896;2022-07-06T05:57:53;15.30;99.90
59855;DHT22;45732;52.850;6.896;2022-07-06T06:00:23;15.30;99.90
59855;DHT22;45732;52.850;6.896;2022-07-06T06:02:49;15.40;99.90
59855;DHT22;45732;52.850;6.896;2022-07-06T06:05:15;15.40;99.90
59855;DHT22;45732;52.850;6.896;2022-07-06T06:07:41;15.40;99.90
59855;DHT22;45732;52.850;6.896;2022-07-06T06:10:09;15.40;99.90
59855;DHT22;45732;52.850;6.896;2022-07-06T06:12:35;15.40;99.90
59855;DHT22;45732;52.850;6.896;2022-07-06T06:15:01;15.40;99.90
59855;DHT22;45732;52.850;6.896;2022-07-06T06:17:28;15.40;99.90
59855;DHT22;45732;52.850;6.896;2022-07-06T06:19:53;15.50;99.90
59855;DHT22;45732;52.850;6.896;2022-07-06T06:22:19;15.50;99.90
59855;DHT22;45732;52.850;6.896;2022-07-06T06:24:45;15.60;99.90
59855;DHT22;45732;52.850;6.896;2022-07-06T06:27:11;15.60;99.90
59855;DHT22;45732;52.850;6.896;2022-07-06T06:29:37;15.60;99.90
59855;DHT22;45732;52.850;6.896;2022-07-06T06:32:03;15.60;99.90
59855;DHT22;45732;52.850;6.896;2022-07-06T06:34:31;15.70;99.90
59855;DHT22;45732;52.850;6.896;2022-07-06T06:36:57;15.70;99.90
59855;DHT22;45732;52.850;6.896;2022-07-06T06:39:22;15.70;99.90
59855;DHT22;45732;52.850;6.896;2022-07-06T06:41:48;15.70;99.90
59855;DHT22;45732;52.850;6.896;2022-07-06T06:44:14;15.70;99.90
59855;DHT22;45732;52.850;6.896;2022-07-06T06:46:40;15.70;99.90
59855;DHT22;45732;52.850;6.896;2022-07-06T06:49:06;15.70;99.90
59855;DHT22;45732;52.850;6.896;2022-07-06T06:51:33;15.70;99.90
59855;DHT22;45732;52.850;6.896;2022-07-06T06:53:59;15.70;99.90
59855;DHT22;45732;52.850;6.896;2022-07-06T06:56:25;15.70;99.90
59855;DHT22;45732;52.850;6.896;2022-07-06T06:58:50;15.70;99.90
59855;DHT22;45732;52.850;6.896;2022-07-06T07:01:16;15.60;99.90
59855;DHT22;45732;52.850;6.896;2022-07-06T07:03:42;15.60;99.90
59855;DHT22;45732;52.850;6.896;2022-07-06T07:06:07;15.60;99.90
59855;DHT22;45732;52.850;6.896;2022-07-06T07:08:33;15.60;99.90
59855;DHT22;45732;52.850;6.896;2022-07-06T07:10:59;15.60;99.90
59855;DHT22;45732;52.850;6.896;2022-07-06T07:13:25;15.70;99.90
59855;DHT22;45732;52.850;6.896;2022-07-06T07:15:50;15.70;99.90
59855;DHT22;45732;52.850;6.896;2022-07-06T07:18:16;15.80;99.90
59855;DHT22;45732;52.850;6.896;2022-07-06T07:20:42;15.90;99.90
59855;DHT22;45732;52.850;6.896;2022-07-06T07:23:07;15.90;99.90
59855;DHT22;45732;52.850;6.896;2022-07-06T07:25:33;16.00;99.90
59855;DHT22;45732;52.850;6.896;2022-07-06T07:27:59;16.00;99.90
59855;DHT22;45732;52.850;6.896;2022-07-06T07:30:25;16.10;99.90
59855;DHT22;45732;52.850;6.896;2022-07-06T07:32:51;16.20;99.90
59855;DHT22;45732;52.850;6.896;2022-07-06T07:35:16;16.20;99.90
59855;DHT22;45732;52.850;6.896;2022-07-06T07:37:42;16.20;99.90
59855;DHT22;45732;52.850;6.896;2022-07-06T07:40:08;16.30;99.90
59855;DHT22;45732;52.850;6.896;2022-07-06T07:42:35;16.20;99.90
59855;DHT22;45732;52.850;6.896;2022-07-06T07:45:01;16.20;99.90
59855;DHT22;45732;52.850;6.896;2022-07-06T07:47:26;16.10;99.90
59855;DHT22;45732;52.850;6.896;2022-07-06T07:49:52;16.10;99.90
59855;DHT22;45732;52.850;6.896;2022-07-06T07:52:18;16.20;99.90
59855;DHT22;45732;52.850;6.896;2022-07-06T07:54:43;16.10;99.90
59855;DHT22;45732;52.850;6.896;2022-07-06T07:57:09;16.20;99.90
59855;DHT22;45732;52.850;6.896;2022-07-06T07:59:36;16.20;99.90
59855;DHT22;45732;52.850;6.896;2022-07-06T08:02:02;16.20;99.90
59855;DHT22;45732;52.850;6.896;2022-07-06T08:04:28;16.20;99.90
59855;DHT22;45732;52.850;6.896;2022-07-06T08:06:53;16.20;99.90
59855;DHT22;45732;52.850;6.896;2022-07-06T08:09:19;16.30;99.90
59855;DHT22;45732;52.850;6.896;2022-07-06T08:11:45;16.30;99.90
59855;DHT22;45732;52.850;6.896;2022-07-06T08:14:11;16.40;99.90
59855;DHT22;45732;52.850;6.896;2022-07-06T08:16:37;16.50;99.90
59855;DHT22;45732;52.850;6.896;2022-07-06T08:19:02;16.60;99.90
59855;DHT22;45732;52.850;6.896;2022-07-06T08:21:28;16.70;99.90
59855;DHT22;45732;52.850;6.896;2022-07-06T08:23:55;16.90;99.90
59855;DHT22;45732;52.850;6.896;2022-07-06T08:26:21;17.10;99.90
59855;DHT22;45732;52.850;6.896;2022-07-06T08:28:47;17.20;99.90
59855;DHT22;45732;52.850;6.896;2022-07-06T08:31:13;17.20;99.90
59855;DHT22;45732;52.850;6.896;2022-07-06T08:33:38;17.30;99.90
59855;DHT22;45732;52.850;6.896;2022-07-06T08:36:04;17.40;99.90
59855;DHT22;45732;52.850;6.896;2022-07-06T08:38:30;17.30;99.90
59855;DHT22;45732;52.850;6.896;2022-07-06T08:40:56;17.30;99.90
59855;DHT22;45732;52.850;6.896;2022-07-06T08:43:23;17.30;99.90
59855;DHT22;45732;52.850;6.896;2022-07-06T08:45:50;17.30;99.90
59855;DHT22;45732;52.850;6.896;2022-07-06T08:48:19;17.20;99.90
59855;DHT22;45732;52.850;6.896;2022-07-06T08:50:48;17.10;99.90
59855;DHT22;45732;52.850;6.896;2022-07-06T08:53:18;17.00;99.90
59855;DHT22;45732;52.850;6.896;2022-07-06T08:55:44;16.90;99.90
59855;DHT22;45732;52.850;6.896;2022-07-06T08:58:10;16.80;99.90
59855;DHT22;45732;52.850;6.896;2022-07-06T09:00:37;16.70;99.90
59855;DHT22;45732;52.850;6.896;2022-07-06T09:03:04;16.70;99.90
59855;DHT22;45732;52.850;6.896;2022-07-06T09:05:32;16.60;99.90
59855;DHT22;45732;52.850;6.896;2022-07-06T09:08:00;16.70;99.90
59855;DHT22;45732;52.850;6.896;2022-07-06T09:10:27;16.70;99.90
59855;DHT22;45732;52.850;6.896;2022-07-06T09:12:53;16.70;99.90
59855;DHT22;45732;52.850;6.896;2022-07-06T09:15:30;16.70;99.90
59855;DHT22;45732;52.850;6.896;2022-07-06T09:17:56;16.70;99.90
59855;DHT22;45732;52.850;6.896;2022-07-06T09:20:24;16.80;99.90
59855;DHT22;45732;52.850;6.896;2022-07-06T09:22:53;16.90;99.90
59855;DHT22;45732;52.850;6.896;2022-07-06T09:25:19;17.10;99.90
59855;DHT22;45732;52.850;6.896;2022-07-06T09:27:46;17.20;99.90
59855;DHT22;45732;52.850;6.896;2022-07-06T09:30:20;17.40;99.90
59855;DHT22;45732;52.850;6.896;2022-07-06T09:32:51;17.50;99.90
59855;DHT22;45732;52.850;6.896;2022-07-06T09:35:28;17.60;99.90
59855;DHT22;45732;52.850;6.896;2022-07-06T09:40:35;18.00;99.90
59855;DHT22;45732;52.850;6.896;2022-07-06T09:45:38;18.20;99.90
59855;DHT22;45732;52.850;6.896;2022-07-06T09:48:30;18.30;99.90
59855;DHT22;45732;52.850;6.896;2022-07-06T09:50:59;18.10;99.90
59855;DHT22;45732;52.850;6.896;2022-07-06T09:53:26;18.10;99.90
59855;DHT22;45732;52.850;6.896;2022-07-06T09:55:57;18.10;99.90
59855;DHT22;45732;52.850;6.896;2022-07-06T09:58:27;18.30;99.90
59855;DHT22;45732;52.850;6.896;2022-07-06T10:00:53;18.40;99.90
59855;DHT22;45732;52.850;6.896;2022-07-06T10:03:19;18.50;99.90
59855;DHT22;45732;52.850;6.896;2022-07-06T10:05:47;18.30;99.90
59855;DHT22;45732;52.850;6.896;2022-07-06T10:08:14;18.40;99.90
59855;DHT22;45732;52.850;6.896;2022-07-06T10:10:41;18.40;99.90
59855;DHT22;45732;52.850;6.896;2022-07-06T10:13:08;18.60;99.90
59855;DHT22;45732;52.850;6.896;2022-07-06T10:15:36;18.70;99.90
59855;DHT22;45732;52.850;6.896;2022-07-06T10:18:04;18.60;99.90
59855;DHT22;45732;52.850;6.896;2022-07-06T10:20:33;18.60;99.90
59855;DHT22;45732;52.850;6.896;2022-07-06T10:23:00;18.60;99.90
59855;DHT22;45732;52.850;6.896;2022-07-06T10:25:27;18.60;99.90
59855;DHT22;45732;52.850;6.896;2022-07-06T10:27:53;18.60;99.90
59855;DHT22;45732;52.850;6.896;2022-07-06T10:30:20;18.60;99.90
59855;DHT22;45732;52.850;6.896;2022-07-06T10:32:49;18.50;99.90
59855;DHT22;45732;52.850;6.896;2022-07-06T10:35:17;18.50;99.90
59855;DHT22;45732;52.850;6.896;2022-07-06T10:37:44;18.40;99.90
59855;DHT22;45732;52.850;6.896;2022-07-06T10:40:10;18.20;99.90
59855;DHT22;45732;52.850;6.896;2022-07-06T10:43:01;18.10;99.90
59855;DHT22;45732;52.850;6.896;2022-07-06T10:53:12;18.50;99.90
59855;DHT22;45732;52.850;6.896;2022-07-06T10:55:40;18.70;99.90
59855;DHT22;45732;52.850;6.896;2022-07-06T10:58:06;18.80;99.90
59855;DHT22;45732;52.850;6.896;2022-07-06T11:00:49;18.90;99.90
59855;DHT22;45732;52.850;6.896;2022-07-06T11:03:40;19.10;99.90
59855;DHT22;45732;52.850;6.896;2022-07-06T11:06:25;19.10;99.90
59855;DHT22;45732;52.850;6.896;2022-07-06T11:09:11;19.10;99.90
59855;DHT22;45732;52.850;6.896;2022-07-06T11:11:41;19.00;99.90
59855;DHT22;45732;52.850;6.896;2022-07-06T11:19:15;19.10;99.90
59855;DHT22;45732;52.850;6.896;2022-07-06T11:21:45;19.20;99.90
59855;DHT22;45732;52.850;6.896;2022-07-06T11:24:20;19.40;99.90
59855;DHT22;45732;52.850;6.896;2022-07-06T11:26:49;19.70;99.90
59855;DHT22;45732;52.850;6.896;2022-07-06T11:29:17;19.80;99.90
59855;DHT22;45732;52.850;6.896;2022-07-06T11:31:45;19.80;99.90
59855;DHT22;45732;52.850;6.896;2022-07-06T11:34:14;20.00;99.90
59855;DHT22;45732;52.850;6.896;2022-07-06T11:36:42;20.00;99.90
59855;DHT22;45732;52.850;6.896;2022-07-06T11:39:09;20.10;99.90
59855;DHT22;45732;52.850;6.896;2022-07-06T11:41:35;20.10;99.40
59855;DHT22;45732;52.850;6.896;2022-07-06T11:44:03;20.00;98.80
59855;DHT22;45732;52.850;6.896;2022-07-06T11:46:32;20.00;99.30
59855;DHT22;45732;52.850;6.896;2022-07-06T11:49:01;20.00;99.00
59855;DHT22;45732;52.850;6.896;2022-07-06T11:51:29;20.00;98.20
59855;DHT22;45732;52.850;6.896;2022-07-06T11:53:57;20.00;98.20
59855;DHT22;45732;52.850;6.896;2022-07-06T11:56:25;19.90;98.30
59855;DHT22;45732;52.850;6.896;2022-07-06T11:58:54;19.70;99.00
59855;DHT22;45732;52.850;6.896;2022-07-06T12:01:21;19.60;99.50
59855;DHT22;45732;52.850;6.896;2022-07-06T12:03:48;19.50;99.90
59855;DHT22;45732;52.850;6.896;2022-07-06T12:06:22;19.60;99.90
59855;DHT22;45732;52.850;6.896;2022-07-06T12:08:56;19.70;99.90
59855;DHT22;45732;52.850;6.896;2022-07-06T12:11:33;20.00;99.90
59855;DHT22;45732;52.850;6.896;2022-07-06T12:14:13;20.00;99.00
59855;DHT22;45732;52.850;6.896;2022-07-06T12:16:39;20.00;99.00
59855;DHT22;45732;52.850;6.896;2022-07-06T12:19:05;19.90;99.70
59855;DHT22;45732;52.850;6.896;2022-07-06T12:21:34;19.90;99.70
59855;DHT22;45732;52.850;6.896;2022-07-06T12:23:59;19.80;99.90
59855;DHT22;45732;52.850;6.896;2022-07-06T12:26:27;19.70;99.90
59855;DHT22;45732;52.850;6.896;2022-07-06T12:29:07;19.60;99.90
59855;DHT22;45732;52.850;6.896;2022-07-06T12:34:11;20.00;99.90
59855;DHT22;45732;52.850;6.896;2022-07-06T12:36:57;20.00;99.90
59855;DHT22;45732;52.850;6.896;2022-07-06T12:39:24;19.90;99.80
59855;DHT22;45732;52.850;6.896;2022-07-06T12:42:03;19.70;99.80
59855;DHT22;45732;52.850;6.896;2022-07-06T12:44:31;19.70;99.70
59855;DHT22;45732;52.850;6.896;2022-07-06T12:47:07;19.60;99.90
59855;DHT22;45732;52.850;6.896;2022-07-06T12:49:34;19.60;99.70
59855;DHT22;45732;52.850;6.896;2022-07-06T12:52:03;19.60;99.60
59855;DHT22;45732;52.850;6.896;2022-07-06T12:54:41;19.60;99.30
59855;DHT22;45732;52.850;6.896;2022-07-06T12:57:09;19.60;99.50
59855;DHT22;45732;52.850;6.896;2022-07-06T12:59:54;19.60;99.70
59855;DHT22;45732;52.850;6.896;2022-07-06T13:02:30;19.60;99.80
59855;DHT22;45732;52.850;6.896;2022-07-06T13:07:28;19.60;99.90
59855;DHT22;45732;52.850;6.896;2022-07-06T13:09:56;19.90;99.90
59855;DHT22;45732;52.850;6.896;2022-07-06T13:12:22;19.80;99.90
59855;DHT22;45732;52.850;6.896;2022-07-06T13:14:49;19.80;99.80
59855;DHT22;45732;52.850;6.896;2022-07-06T13:17:15;19.70;99.20
59855;DHT22;45732;52.850;6.896;2022-07-06T13:19:40;19.70;99.40
59855;DHT22;45732;52.850;6.896;2022-07-06T13:22:06;19.70;99.90
59855;DHT22;45732;52.850;6.896;2022-07-06T13:24:32;19.70;99.10
59855;DHT22;45732;52.850;6.896;2022-07-06T13:26:58;19.80;99.90
59855;DHT22;45732;52.850;6.896;2022-07-06T13:29:24;19.90;99.50
59855;DHT22;45732;52.850;6.896;2022-07-06T13:31:50;19.80;98.90
59855;DHT22;45732;52.850;6.896;2022-07-06T13:34:16;19.80;99.40
59855;DHT22;45732;52.850;6.896;2022-07-06T13:36:42;19.80;99.80
59855;DHT22;45732;52.850;6.896;2022-07-06T13:39:08;19.80;99.90
59855;DHT22;45732;52.850;6.896;2022-07-06T13:41:34;19.90;99.90
59855;DHT22;45732;52.850;6.896;2022-07-06T13:44:00;19.90;99.90
59855;DHT22;45732;52.850;6.896;2022-07-06T13:46:29;20.00;99.90
59855;DHT22;45732;52.850;6.896;2022-07-06T13:48:56;20.10;99.80
59855;DHT22;45732;52.850;6.896;2022-07-06T13:51:25;20.30;99.70
59855;DHT22;45732;52.850;6.896;2022-07-06T13:53:52;20.30;99.10
59855;DHT22;45732;52.850;6.896;2022-07-06T13:56:19;20.30;98.60
59855;DHT22;45732;52.850;6.896;2022-07-06T13:58:44;20.10;98.20
59855;DHT22;45732;52.850;6.896;2022-07-06T14:01:11;20.20;98.10
59855;DHT22;45732;52.850;6.896;2022-07-06T14:03:36;20.10;97.20
59855;DHT22;45732;52.850;6.896;2022-07-06T14:06:04;20.10;97.90
59855;DHT22;45732;52.850;6.896;2022-07-06T14:08:32;20.20;97.40
59855;DHT22;45732;52.850;6.896;2022-07-06T14:10:58;20.10;97.00
59855;DHT22;45732;52.850;6.896;2022-07-06T14:13:24;20.00;96.70
59855;DHT22;45732;52.850;6.896;2022-07-06T14:15:50;20.00;97.30
59855;DHT22;45732;52.850;6.896;2022-07-06T14:18:16;19.90;97.40
59855;DHT22;45732;52.850;6.896;2022-07-06T14:20:46;19.90;97.20
59855;DHT22;45732;52.850;6.896;2022-07-06T14:23:13;19.90;97.60
59855;DHT22;45732;52.850;6.896;2022-07-06T14:25:40;19.80;97.80
59855;DHT22;45732;52.850;6.896;2022-07-06T14:28:06;19.80;98.00
59855;DHT22;45732;52.850;6.896;2022-07-06T14:30:34;19.80;98.30
59855;DHT22;45732;52.850;6.896;2022-07-06T14:33:06;19.80;98.70
59855;DHT22;45732;52.850;6.896;2022-07-06T14:35:52;19.80;98.90
59855;DHT22;45732;52.850;6.896;2022-07-06T14:38:19;19.80;99.40
59855;DHT22;45732;52.850;6.896;2022-07-06T14:40:45;19.80;99.40
59855;DHT22;45732;52.850;6.896;2022-07-06T14:43:13;19.80;99.30
59855;DHT22;45732;52.850;6.896;2022-07-06T14:45:40;19.70;99.50
59855;DHT22;45732;52.850;6.896;2022-07-06T14:48:08;19.60;99.70
59855;DHT22;45732;52.850;6.896;2022-07-06T14:50:33;19.50;99.10
59855;DHT22;45732;52.850;6.896;2022-07-06T14:53:00;19.50;99.30
59855;DHT22;45732;52.850;6.896;2022-07-06T14:55:26;19.50;99.50
59855;DHT22;45732;52.850;6.896;2022-07-06T14:57:52;19.50;99.70
59855;DHT22;45732;52.850;6.896;2022-07-06T15:00:18;19.50;99.90
59855;DHT22;45732;52.850;6.896;2022-07-06T15:02:43;19.40;99.60
59855;DHT22;45732;52.850;6.896;2022-07-06T15:05:10;19.40;99.70
59855;DHT22;45732;52.850;6.896;2022-07-06T15:07:36;19.40;99.10
59855;DHT22;45732;52.850;6.896;2022-07-06T15:10:04;19.30;99.10
59855;DHT22;45732;52.850;6.896;2022-07-06T15:12:30;19.20;98.80
59855;DHT22;45732;52.850;6.896;2022-07-06T15:14:56;19.20;99.10
59855;DHT22;45732;52.850;6.896;2022-07-06T15:17:21;19.20;99.30
59855;DHT22;45732;52.850;6.896;2022-07-06T15:19:47;19.20;99.60
59855;DHT22;45732;52.850;6.896;2022-07-06T15:22:13;19.10;99.30
59855;DHT22;45732;52.850;6.896;2022-07-06T15:24:39;19.00;99.40
59855;DHT22;45732;52.850;6.896;2022-07-06T15:27:05;19.00;99.80
59855;DHT22;45732;52.850;6.896;2022-07-06T15:29:31;19.00;99.90
59855;DHT22;45732;52.850;6.896;2022-07-06T15:31:57;18.90;99.90
59855;DHT22;45732;52.850;6.896;2022-07-06T15:34:23;19.00;99.90
59855;DHT22;45732;52.850;6.896;2022-07-06T15:36:49;19.00;99.90
59855;DHT22;45732;52.850;6.896;2022-07-06T15:39:15;19.00;99.90
59855;DHT22;45732;52.850;6.896;2022-07-06T15:41:41;19.10;99.90
59855;DHT22;45732;52.850;6.896;2022-07-06T15:44:07;19.10;99.90
59855;DHT22;45732;52.850;6.896;2022-07-06T15:46:32;19.10;99.90
59855;DHT22;45732;52.850;6.896;2022-07-06T15:48:58;19.10;99.90
59855;DHT22;45732;52.850;6.896;2022-07-06T15:51:24;19.10;99.90
59855;DHT22;45732;52.850;6.896;2022-07-06T15:53:50;19.10;99.90
59855;DHT22;45732;52.850;6.896;2022-07-06T15:56:16;19.10;99.90